Watertown Regional Airport
KATY : now visible

Airfield :











YOU CAN JOIN US ON...

 
LOGIN :

Register | Disclaimer

   EN    FR    IT 

 









Legend :    VFR   Marginal VFR   IFR   Intensive IFR   Very Intensive IFR
Visi :
Ceiling :
>= 8 km
>= 3000ft
5 to 8 km
1000 to 3000 ft
1500m to 5 km
500 to 1000 ft
800 to 1500m
200 to 500 ft
< 800m
< 200 ft
Symbols :   Thunderstorms  Fog  Heavy snow  Heavy precipitations  Wind > 20 kt






- Airport Elevation : 1749 ft
- IATA code : ATY


KATY - Watertown Regional

CURRENT METAR :
  • 180731Z AUTO 00000KT 1/4SM FZFG VV002 M07/M07 A2980 RMK AO2 T10671072

EXPIRED METARs :
  • 180727Z AUTO 00000KT 1SM BR VV002 M07/M08 A2980 RMK AO2 VIS 1/4V5 T10721078
  • 180715Z AUTO 00000KT 6SM BR SCT005 M07/M08 A2980 RMK AO2 T10671078
  • 180653Z AUTO 00000KT 5SM BR OVC005 M07/M07 A2980 RMK AO2 SLP115 I1000 T10671072
  • 180622Z AUTO 29003KT 7SM BKN005 M05/M06 A2980 RMK AO2 T10501056
  • 180604Z AUTO 28004KT 6SM BR SCT004 BKN027 M07/M07 A2981 RMK AO2 T10671072
  • 180545Z AUTO 00000KT 1 1/2SM BR SCT027 M05/M06 A2981 RMK AO2 I1000 T10501056
  • 180533Z AUTO 00000KT 3/4SM BR FEW110 M05/M06 A2981 RMK AO2 I1000 T10501056
  • 180502Z AUTO 00000KT 6SM BR SCT006 M05/M06 A2980 RMK AO2 T10501056
  • 180453Z AUTO 00000KT 8SM BKN006 BKN030 M04/M05 A2980 RMK AO2 SLP114 T10441050

TAF KATY
Valid from the 18 at 06:00 until the 19 at 06:00 UTC


180531Z 1806/1906 VRB03KT P6SM BKN100
TEMPO 1806/1808 2SM BR
FM181000 VRB03KT P6SM OVC010
FM181900 06005KT P6SM VCSH OVC015
KZMP FIR / North America



MET'MAP, your aeronautical weather chart ! - Copyright ORBIFLY December 2007 - Disclaimer

ORBIFLY MET'MAP TEAM :

Programming & Development : Alexandra Zaïnal
Concept & original design : Baudouin d'Aumeries
Assistance for programming : Marc-Olivier Méhu
Technical & hardware support : Manuel Goepfert

Contact : metmap@orbifly.com




SOURCES & CREDITS :

   NOAA       Earth
Advisory